sensor_id;sensor_type;location;lat;lon;timestamp;pressure;altitude;pressure_sealevel;temperature;humidity
55675;BME280;41562;44.330;23.802;2022-08-20T00:01:37;99661.72;;;26.21;59.46
55675;BME280;41562;44.330;23.802;2022-08-20T00:04:12;99657.78;;;26.12;59.50
55675;BME280;41562;44.330;23.802;2022-08-20T00:06:42;99664.44;;;26.03;59.64
55675;BME280;41562;44.330;23.802;2022-08-20T00:09:18;99667.19;;;26.03;59.48
55675;BME280;41562;44.330;23.802;2022-08-20T00:11:45;99663.28;;;26.08;59.53
55675;BME280;41562;44.330;23.802;2022-08-20T00:14:21;99667.97;;;26.18;59.14
55675;BME280;41562;44.330;23.802;2022-08-20T00:16:51;99663.28;;;26.15;59.12
55675;BME280;41562;44.330;23.802;2022-08-20T00:19:31;99664.44;;;26.07;59.40
55675;BME280;41562;44.330;23.802;2022-08-20T00:21:58;99653.88;;;25.98;59.76
55675;BME280;41562;44.330;23.802;2022-08-20T00:24:41;99659.31;;;25.95;59.76
55675;BME280;41562;44.330;23.802;2022-08-20T00:27:09;99647.56;;;25.87;60.23
55675;BME280;41562;44.330;23.802;2022-08-20T00:29:39;99644.44;;;25.85;60.10
55675;BME280;41562;44.330;23.802;2022-08-20T00:32:12;99644.47;;;25.92;59.84
55675;BME280;41562;44.330;23.802;2022-08-20T00:34:46;99644.06;;;25.90;59.89
55675;BME280;41562;44.330;23.802;2022-08-20T00:37:13;99640.91;;;25.88;60.15
55675;BME280;41562;44.330;23.802;2022-08-20T00:39:46;99639.75;;;25.89;60.28
55675;BME280;41562;44.330;23.802;2022-08-20T00:42:25;99633.88;;;25.84;60.35
55675;BME280;41562;44.330;23.802;2022-08-20T00:44:58;99631.09;;;25.80;60.48
55675;BME280;41562;44.330;23.802;2022-08-20T00:47:29;99626.41;;;25.77;60.73
55675;BME280;41562;44.330;23.802;2022-08-20T00:49:56;99625.63;;;25.80;60.31
55675;BME280;41562;44.330;23.802;2022-08-20T00:52:30;99625.19;;;25.68;60.95
55675;BME280;41562;44.330;23.802;2022-08-20T00:55:03;99625.25;;;25.78;60.80
55675;BME280;41562;44.330;23.802;2022-08-20T00:57:36;99624.06;;;25.86;60.10
55675;BME280;41562;44.330;23.802;2022-08-20T01:00:35;99616.66;;;25.83;60.53
55675;BME280;41562;44.330;23.802;2022-08-20T01:03:06;99620.94;;;25.77;60.69
55675;BME280;41562;44.330;23.802;2022-08-20T01:05:43;99615.88;;;25.79;60.33
55675;BME280;41562;44.330;23.802;2022-08-20T01:08:11;99617.84;;;25.86;60.33
55675;BME280;41562;44.330;23.802;2022-08-20T01:10:42;99622.53;;;25.85;60.18
55675;BME280;41562;44.330;23.802;2022-08-20T01:13:12;99614.69;;;25.73;60.76
55675;BME280;41562;44.330;23.802;2022-08-20T01:15:41;99615.84;;;25.72;61.00
55675;BME280;41562;44.330;23.802;2022-08-20T01:18:13;99622.41;;;25.53;61.56
55675;BME280;41562;44.330;23.802;2022-08-20T01:20:44;99615.34;;;25.49;61.30
55675;BME280;41562;44.330;23.802;2022-08-20T01:23:48;99618.06;;;25.45;61.82
55675;BME280;41562;44.330;23.802;2022-08-20T01:26:22;99613.78;;;25.48;61.59
55675;BME280;41562;44.330;23.802;2022-08-20T01:29:04;99607.50;;;25.44;61.80
55675;BME280;41562;44.330;23.802;2022-08-20T01:31:33;99611.47;;;25.53;61.60
55675;BME280;41562;44.330;23.802;2022-08-20T01:34:03;99603.59;;;25.45;61.53
55675;BME280;41562;44.330;23.802;2022-08-20T01:36:34;99608.69;;;25.50;61.83
55675;BME280;41562;44.330;23.802;2022-08-20T01:39:03;99610.28;;;25.51;61.31
55675;BME280;41562;44.330;23.802;2022-08-20T01:42:17;99616.50;;;25.44;61.66
55675;BME280;41562;44.330;23.802;2022-08-20T01:44:21;99618.84;;;25.39;62.05
55675;BME280;41562;44.330;23.802;2022-08-20T01:46:52;99621.19;;;25.40;61.75
55675;BME280;41562;44.330;23.802;2022-08-20T01:49:25;99620.38;;;25.36;62.08
55675;BME280;41562;44.330;23.802;2022-08-20T01:52:00;99624.31;;;25.42;61.99
55675;BME280;41562;44.330;23.802;2022-08-20T01:54:28;99622.31;;;25.32;62.49
55675;BME280;41562;44.330;23.802;2022-08-20T01:59:40;99623.50;;;25.31;62.59
55675;BME280;41562;44.330;23.802;2022-08-20T02:02:16;99624.31;;;25.39;62.67
55675;BME280;41562;44.330;23.802;2022-08-20T02:04:44;99626.22;;;25.31;62.90
55675;BME280;41562;44.330;23.802;2022-08-20T02:07:13;99625.84;;;25.33;62.90
55675;BME280;41562;44.330;23.802;2022-08-20T02:09:46;99640.66;;;25.21;63.18
55675;BME280;41562;44.330;23.802;2022-08-20T02:12:16;99641.81;;;25.23;63.62
55675;BME280;41562;44.330;23.802;2022-08-20T02:14:46;99632.44;;;25.24;63.99
55675;BME280;41562;44.330;23.802;2022-08-20T02:17:25;99634.41;;;25.24;63.92
55675;BME280;41562;44.330;23.802;2022-08-20T02:19:54;99640.63;;;25.14;64.19
55675;BME280;41562;44.330;23.802;2022-08-20T02:22:29;99630.09;;;25.19;64.68
55675;BME280;41562;44.330;23.802;2022-08-20T02:25:00;99636.72;;;25.18;64.37
55675;BME280;41562;44.330;23.802;2022-08-20T02:27:28;99638.66;;;25.14;64.43
55675;BME280;41562;44.330;23.802;2022-08-20T02:30:03;99635.63;;;25.34;64.23
55675;BME280;41562;44.330;23.802;2022-08-20T02:32:32;99636.25;;;25.92;63.60
55675;BME280;41562;44.330;23.802;2022-08-20T02:35:04;99638.56;;;25.83;63.33
55675;BME280;41562;44.330;23.802;2022-08-20T02:37:32;99628.41;;;26.01;63.40
55675;BME280;41562;44.330;23.802;2022-08-20T02:39:59;99639.41;;;26.09;62.03
55675;BME280;41562;44.330;23.802;2022-08-20T02:42:26;99638.22;;;26.02;61.36
55675;BME280;41562;44.330;23.802;2022-08-20T02:44:54;99639.75;;;25.89;62.38
55675;BME280;41562;44.330;23.802;2022-08-20T02:47:21;99634.66;;;25.84;63.21
55675;BME280;41562;44.330;23.802;2022-08-20T02:49:51;99638.91;;;25.68;64.16
55675;BME280;41562;44.330;23.802;2022-08-20T02:52:19;99634.22;;;25.75;63.01
55675;BME280;41562;44.330;23.802;2022-08-20T02:54:51;99635.06;;;26.00;62.09
55675;BME280;41562;44.330;23.802;2022-08-20T02:57:19;99629.19;;;25.95;61.78
55675;BME280;41562;44.330;23.802;2022-08-20T02:59:46;99637.03;;;26.00;62.45
55675;BME280;41562;44.330;23.802;2022-08-20T03:02:14;99630.00;;;26.13;61.33
55675;BME280;41562;44.330;23.802;2022-08-20T03:04:41;99631.94;;;26.13;61.04
55675;BME280;41562;44.330;23.802;2022-08-20T03:07:09;99626.88;;;26.22;61.36
55675;BME280;41562;44.330;23.802;2022-08-20T03:09:37;99633.56;;;26.31;61.26
55675;BME280;41562;44.330;23.802;2022-08-20T03:12:06;99639.38;;;26.05;60.81
55675;BME280;41562;44.330;23.802;2022-08-20T03:14:36;99637.44;;;26.13;61.01
55675;BME280;41562;44.330;23.802;2022-08-20T03:17:03;99627.19;;;25.81;61.34
55675;BME280;41562;44.330;23.802;2022-08-20T03:19:36;99640.16;;;25.95;61.21
55675;BME280;41562;44.330;23.802;2022-08-20T03:22:03;99640.53;;;25.93;61.29
55675;BME280;41562;44.330;23.802;2022-08-20T03:24:34;99643.28;;;25.97;61.18
55675;BME280;41562;44.330;23.802;2022-08-20T03:27:01;99637.81;;;26.00;61.32
55675;BME280;41562;44.330;23.802;2022-08-20T03:29:28;99643.66;;;25.85;61.77
55675;BME280;41562;44.330;23.802;2022-08-20T03:31:55;99649.16;;;25.92;61.96
55675;BME280;41562;44.330;23.802;2022-08-20T03:34:22;99645.19;;;25.75;61.72
55675;BME280;41562;44.330;23.802;2022-08-20T03:36:53;99648.22;;;25.56;62.12
55675;BME280;41562;44.330;23.802;2022-08-20T03:39:24;99642.84;;;25.70;62.00
55675;BME280;41562;44.330;23.802;2022-08-20T03:41:51;99634.19;;;25.57;62.35
55675;BME280;41562;44.330;23.802;2022-08-20T03:44:21;99644.44;;;25.78;62.54
55675;BME280;41562;44.330;23.802;2022-08-20T03:46:51;99637.00;;;25.93;61.78
55675;BME280;41562;44.330;23.802;2022-08-20T03:49:22;99633.09;;;25.90;61.75
55675;BME280;41562;44.330;23.802;2022-08-20T03:51:52;99640.56;;;26.15;61.02
55675;BME280;41562;44.330;23.802;2022-08-20T03:54:24;99636.59;;;25.87;61.61
55675;BME280;41562;44.330;23.802;2022-08-20T03:57:01;99631.91;;;25.84;61.28
55675;BME280;41562;44.330;23.802;2022-08-20T03:59:42;99632.69;;;25.85;61.43
55675;BME280;41562;44.330;23.802;2022-08-20T04:02:24;99625.28;;;25.99;60.85
55675;BME280;41562;44.330;23.802;2022-08-20T04:04:55;99627.22;;;25.99;61.56
55675;BME280;41562;44.330;23.802;2022-08-20T04:07:25;99626.81;;;25.86;61.29
55675;BME280;41562;44.330;23.802;2022-08-20T04:09:53;99620.16;;;25.80;61.72
55675;BME280;41562;44.330;23.802;2022-08-20T04:12:28;99622.09;;;25.76;62.32
55675;BME280;41562;44.330;23.802;2022-08-20T04:14:56;99612.72;;;25.77;61.46
55675;BME280;41562;44.330;23.802;2022-08-20T04:17:29;99612.34;;;25.86;62.22
55675;BME280;41562;44.330;23.802;2022-08-20T04:20:05;99611.94;;;25.84;61.64
55675;BME280;41562;44.330;23.802;2022-08-20T04:22:40;99612.72;;;25.77;61.87
55675;BME280;41562;44.330;23.802;2022-08-20T04:25:21;99606.06;;;25.78;62.32
55675;BME280;41562;44.330;23.802;2022-08-20T04:27:53;99609.97;;;25.77;62.34
55675;BME280;41562;44.330;23.802;2022-08-20T04:30:21;99604.50;;;25.88;62.18
55675;BME280;41562;44.330;23.802;2022-08-20T04:32:58;99604.50;;;25.77;62.14
55675;BME280;41562;44.330;23.802;2022-08-20T04:35:29;99605.63;;;25.62;63.34
55675;BME280;41562;44.330;23.802;2022-08-20T04:38:04;99609.19;;;25.73;62.57
55675;BME280;41562;44.330;23.802;2022-08-20T04:40:35;99611.44;;;25.50;63.04
55675;BME280;41562;44.330;23.802;2022-08-20T04:43:03;99609.88;;;25.56;63.92
55675;BME280;41562;44.330;23.802;2022-08-20T04:45:44;99613.59;;;26.24;62.89
55675;BME280;41562;44.330;23.802;2022-08-20T04:48:14;99614.75;;;26.58;61.86
55675;BME280;41562;44.330;23.802;2022-08-20T04:50:44;99618.66;;;26.64;60.72
55675;BME280;41562;44.330;23.802;2022-08-20T04:53:14;99623.38;;;26.74;61.36
55675;BME280;41562;44.330;23.802;2022-08-20T04:55:54;99620.19;;;26.83;60.53
55675;BME280;41562;44.330;23.802;2022-08-20T04:58:23;99627.66;;;26.72;60.04
55675;BME280;41562;44.330;23.802;2022-08-20T05:00:53;99624.94;;;26.47;60.20
55675;BME280;41562;44.330;23.802;2022-08-20T05:03:28;99633.19;;;26.47;62.17
55675;BME280;41562;44.330;23.802;2022-08-20T05:06:05;99629.25;;;26.30;61.62
55675;BME280;41562;44.330;23.802;2022-08-20T05:08:44;99628.81;;;26.18;61.91
55675;BME280;41562;44.330;23.802;2022-08-20T05:11:12;99625.69;;;26.09;62.29
55675;BME280;41562;44.330;23.802;2022-08-20T05:14:04;99626.06;;;25.89;62.71
55675;BME280;41562;44.330;23.802;2022-08-20T05:16:35;99617.09;;;26.24;62.61
55675;BME280;41562;44.330;23.802;2022-08-20T05:19:03;99621.00;;;26.09;62.60
55675;BME280;41562;44.330;23.802;2022-08-20T05:21:30;99621.41;;;26.32;61.48
55675;BME280;41562;44.330;23.802;2022-08-20T05:24:03;99623.78;;;26.34;62.00
55675;BME280;41562;44.330;23.802;2022-08-20T05:26:31;99624.94;;;26.47;60.86
55675;BME280;41562;44.330;23.802;2022-08-20T05:28:58;99626.13;;;26.46;61.37
55675;BME280;41562;44.330;23.802;2022-08-20T05:31:26;99623.38;;;26.60;62.33
55675;BME280;41562;44.330;23.802;2022-08-20T05:34:05;99623.78;;;26.48;61.40
55675;BME280;41562;44.330;23.802;2022-08-20T05:36:32;99626.53;;;26.55;61.16
55675;BME280;41562;44.330;23.802;2022-08-20T05:39:00;99625.72;;;26.62;60.98
55675;BME280;41562;44.330;23.802;2022-08-20T05:41:31;99616.69;;;26.68;60.80
55675;BME280;41562;44.330;23.802;2022-08-20T05:44:01;99622.56;;;26.74;60.29
55675;BME280;41562;44.330;23.802;2022-08-20T05:46:32;99620.22;;;26.79;59.25
55675;BME280;41562;44.330;23.802;2022-08-20T05:49:02;99625.28;;;26.81;59.70
55675;BME280;41562;44.330;23.802;2022-08-20T05:51:30;99627.25;;;26.84;60.08
55675;BME280;41562;44.330;23.802;2022-08-20T05:54:00;99631.16;;;26.97;59.39
55675;BME280;41562;44.330;23.802;2022-08-20T05:56:31;99622.53;;;27.06;59.19
55675;BME280;41562;44.330;23.802;2022-08-20T05:59:03;99629.53;;;27.14;59.12
55675;BME280;41562;44.330;23.802;2022-08-20T06:01:35;99626.44;;;27.12;58.79
55675;BME280;41562;44.330;23.802;2022-08-20T06:04:07;99627.94;;;27.31;58.68
55675;BME280;41562;44.330;23.802;2022-08-20T06:06:34;99638.16;;;27.23;58.09
55675;BME280;41562;44.330;23.802;2022-08-20T06:09:14;99642.38;;;27.52;57.42
55675;BME280;41562;44.330;23.802;2022-08-20T06:11:44;99646.56;;;27.82;56.67
55675;BME280;41562;44.330;23.802;2022-08-20T06:14:18;99643.75;;;27.89;56.27
55675;BME280;41562;44.330;23.802;2022-08-20T06:16:49;99639.06;;;27.82;56.26
55675;BME280;41562;44.330;23.802;2022-08-20T06:19:28;99638.59;;;27.98;55.88
55675;BME280;41562;44.330;23.802;2022-08-20T06:21:59;99642.50;;;28.00;55.82
55675;BME280;41562;44.330;23.802;2022-08-20T06:24:37;99648.31;;;28.13;56.30
55675;BME280;41562;44.330;23.802;2022-08-20T06:27:13;99649.13;;;28.10;55.52
55675;BME280;41562;44.330;23.802;2022-08-20T06:29:40;99643.94;;;28.26;54.79
55675;BME280;41562;44.330;23.802;2022-08-20T06:32:14;99647.44;;;28.27;55.61
55675;BME280;41562;44.330;23.802;2022-08-20T06:34:44;99650.94;;;28.34;54.55
55675;BME280;41562;44.330;23.802;2022-08-20T06:39:52;99648.78;;;28.56;54.73
55675;BME280;41562;44.330;23.802;2022-08-20T06:42:20;99648.13;;;28.86;54.12
55675;BME280;41562;44.330;23.802;2022-08-20T06:44:54;99648.00;;;29.00;53.25
55675;BME280;41562;44.330;23.802;2022-08-20T06:47:30;99652.25;;;29.08;52.90
55675;BME280;41562;44.330;23.802;2022-08-20T06:50:01;99658.44;;;29.16;52.59
55675;BME280;41562;44.330;23.802;2022-08-20T06:52:29;99638.59;;;29.32;52.29
55675;BME280;41562;44.330;23.802;2022-08-20T06:55:25;99658.19;;;29.41;52.38
55675;BME280;41562;44.330;23.802;2022-08-20T06:58:00;99651.22;;;29.63;51.21
55675;BME280;41562;44.330;23.802;2022-08-20T07:00:29;99648.88;;;29.62;50.98
55675;BME280;41562;44.330;23.802;2022-08-20T07:03:00;99660.13;;;29.74;51.70
55675;BME280;41562;44.330;23.802;2022-08-20T07:05:32;99663.56;;;29.82;51.49
55675;BME280;41562;44.330;23.802;2022-08-20T07:08:03;99660.41;;;29.83;50.27
55675;BME280;41562;44.330;23.802;2022-08-20T07:10:31;99666.69;;;29.84;49.68
55675;BME280;41562;44.330;23.802;2022-08-20T07:13:02;99656.22;;;30.02;49.63
55675;BME280;41562;44.330;23.802;2022-08-20T07:15:33;99660.09;;;30.05;49.92
55675;BME280;41562;44.330;23.802;2022-08-20T07:18:02;99655.69;;;30.11;49.43
55675;BME280;41562;44.330;23.802;2022-08-20T07:20:36;99652.53;;;30.35;48.91
55675;BME280;41562;44.330;23.802;2022-08-20T07:23:10;99647.69;;;30.43;48.92
55675;BME280;41562;44.330;23.802;2022-08-20T07:25:42;99639.28;;;30.27;48.13
55675;BME280;41562;44.330;23.802;2022-08-20T07:28:20;99656.44;;;30.38;48.69
55675;BME280;41562;44.330;23.802;2022-08-20T07:30:50;99647.25;;;30.71;48.22
55675;BME280;41562;44.330;23.802;2022-08-20T07:33:32;99643.72;;;30.91;48.62
55675;BME280;41562;44.330;23.802;2022-08-20T07:36:06;99637.56;;;31.03;48.61
55675;BME280;41562;44.330;23.802;2022-08-20T07:38:41;99630.13;;;31.00;47.16
55675;BME280;41562;44.330;23.802;2022-08-20T07:41:11;99637.94;;;31.05;46.77
55675;BME280;41562;44.330;23.802;2022-08-20T07:43:40;99623.34;;;30.85;46.10
55675;BME280;41562;44.330;23.802;2022-08-20T07:46:10;99627.72;;;31.02;46.77
55675;BME280;41562;44.330;23.802;2022-08-20T07:48:41;99634.09;;;30.99;46.61
55675;BME280;41562;44.330;23.802;2022-08-20T07:51:09;99624.69;;;30.96;46.83
55675;BME280;41562;44.330;23.802;2022-08-20T07:53:39;99622.09;;;31.09;45.90
55675;BME280;41562;44.330;23.802;2022-08-20T07:56:08;99621.09;;;31.19;45.65
55675;BME280;41562;44.330;23.802;2022-08-20T07:58:38;99625.16;;;31.14;45.15
55675;BME280;41562;44.330;23.802;2022-08-20T08:01:17;99615.44;;;31.26;46.59
55675;BME280;41562;44.330;23.802;2022-08-20T08:03:50;99614.38;;;31.20;45.26
55675;BME280;41562;44.330;23.802;2022-08-20T08:06:18;99601.84;;;31.35;45.67
55675;BME280;41562;44.330;23.802;2022-08-20T08:09:04;99603.53;;;31.29;44.82
55675;BME280;41562;44.330;23.802;2022-08-20T08:11:33;99604.22;;;31.33;45.36
55675;BME280;41562;44.330;23.802;2022-08-20T08:14:04;99600.13;;;31.41;45.55
55675;BME280;41562;44.330;23.802;2022-08-20T08:16:35;99605.50;;;31.48;44.31
55675;BME280;41562;44.330;23.802;2022-08-20T08:19:04;99602.78;;;31.65;44.63
55675;BME280;41562;44.330;23.802;2022-08-20T08:21:35;99593.41;;;31.94;44.43
55675;BME280;41562;44.330;23.802;2022-08-20T08:24:08;99597.66;;;31.99;43.92
55675;BME280;41562;44.330;23.802;2022-08-20T08:26:36;99599.53;;;32.02;43.22
55675;BME280;41562;44.330;23.802;2022-08-20T08:29:03;99589.72;;;32.17;44.53
55675;BME280;41562;44.330;23.802;2022-08-20T08:31:32;99591.97;;;32.22;42.53
55675;BME280;41562;44.330;23.802;2022-08-20T08:33:59;99580.03;;;32.25;42.75
55675;BME280;41562;44.330;23.802;2022-08-20T08:36:30;99578.34;;;32.60;42.66
55675;BME280;41562;44.330;23.802;2022-08-20T08:38:57;99581.63;;;32.71;41.68
55675;BME280;41562;44.330;23.802;2022-08-20T08:43:52;99573.94;;;32.47;40.95
55675;BME280;41562;44.330;23.802;2022-08-20T08:46:24;99575.16;;;32.46;40.67
55675;BME280;41562;44.330;23.802;2022-08-20T08:48:56;99566.84;;;32.46;40.81
55675;BME280;41562;44.330;23.802;2022-08-20T08:51:31;99552.19;;;32.61;40.92
55675;BME280;41562;44.330;23.802;2022-08-20T08:54:00;99567.00;;;32.71;40.86
55675;BME280;41562;44.330;23.802;2022-08-20T08:56:33;99557.63;;;32.65;41.09
55675;BME280;41562;44.330;23.802;2022-08-20T08:59:06;99556.50;;;32.79;40.67
55675;BME280;41562;44.330;23.802;2022-08-20T09:02:00;99551.00;;;32.91;40.57
55675;BME280;41562;44.330;23.802;2022-08-20T09:04:29;99553.09;;;32.87;40.88
55675;BME280;41562;44.330;23.802;2022-08-20T09:07:02;99559.66;;;32.93;40.17
55675;BME280;41562;44.330;23.802;2022-08-20T09:09:34;99548.03;;;32.98;39.86
55675;BME280;41562;44.330;23.802;2022-08-20T09:12:15;99550.75;;;32.86;39.71
55675;BME280;41562;44.330;23.802;2022-08-20T09:14:46;99559.41;;;32.88;39.54
55675;BME280;41562;44.330;23.802;2022-08-20T09:17:14;99557.09;;;32.86;40.18
55675;BME280;41562;44.330;23.802;2022-08-20T09:19:47;99545.88;;;32.90;40.67
55675;BME280;41562;44.330;23.802;2022-08-20T09:22:20;99545.22;;;32.86;39.56
55675;BME280;41562;44.330;23.802;2022-08-20T09:24:50;99549.78;;;32.92;39.21
55675;BME280;41562;44.330;23.802;2022-08-20T09:27:18;99556.31;;;32.86;39.00
55675;BME280;41562;44.330;23.802;2022-08-20T09:29:48;99551.34;;;32.93;40.26
55675;BME280;41562;44.330;23.802;2022-08-20T09:32:23;99550.78;;;32.98;39.27
55675;BME280;41562;44.330;23.802;2022-08-20T09:34:55;99549.44;;;33.32;39.35
55675;BME280;41562;44.330;23.802;2022-08-20T09:37:27;99561.78;;;33.14;38.41
55675;BME280;41562;44.330;23.802;2022-08-20T09:40:03;99555.59;;;33.10;39.16
55675;BME280;41562;44.330;23.802;2022-08-20T09:42:31;99546.19;;;33.21;38.62
55675;BME280;41562;44.330;23.802;2022-08-20T09:45:10;99548.56;;;33.35;38.35
55675;BME280;41562;44.330;23.802;2022-08-20T09:47:46;99544.78;;;33.41;38.71
55675;BME280;41562;44.330;23.802;2022-08-20T09:50:27;99560.06;;;33.21;37.78
55675;BME280;41562;44.330;23.802;2022-08-20T09:52:55;99555.47;;;33.14;37.59
55675;BME280;41562;44.330;23.802;2022-08-20T09:55:33;99555.59;;;33.10;38.65
55675;BME280;41562;44.330;23.802;2022-08-20T09:58:52;99556.34;;;32.98;38.92
55675;BME280;41562;44.330;23.802;2022-08-20T10:01:05;99554.50;;;33.21;39.01
55675;BME280;41562;44.330;23.802;2022-08-20T10:03:40;99561.63;;;33.22;38.26
55675;BME280;41562;44.330;23.802;2022-08-20T10:06:11;99555.44;;;33.30;38.37
55675;BME280;41562;44.330;23.802;2022-08-20T10:08:47;99564.56;;;33.14;38.33
55675;BME280;41562;44.330;23.802;2022-08-20T10:11:22;99564.06;;;33.20;38.62
55675;BME280;41562;44.330;23.802;2022-08-20T10:13:53;99562.53;;;33.31;38.86
55675;BME280;41562;44.330;23.802;2022-08-20T10:16:21;99556.44;;;33.62;39.48
55675;BME280;41562;44.330;23.802;2022-08-20T10:18:52;99551.66;;;33.37;39.23
55675;BME280;41562;44.330;23.802;2022-08-20T10:21:22;99558.06;;;33.34;37.84
55675;BME280;41562;44.330;23.802;2022-08-20T10:23:50;99555.97;;;33.25;37.99
55675;BME280;41562;44.330;23.802;2022-08-20T10:26:21;99546.00;;;33.53;37.61
55675;BME280;41562;44.330;23.802;2022-08-20T10:28:52;99550.53;;;33.34;38.29
55675;BME280;41562;44.330;23.802;2022-08-20T10:31:20;99559.38;;;33.17;38.95
55675;BME280;41562;44.330;23.802;2022-08-20T10:33:56;99567.75;;;33.00;38.33
55675;BME280;41562;44.330;23.802;2022-08-20T10:36:24;99561.44;;;33.00;37.98
55675;BME280;41562;44.330;23.802;2022-08-20T10:38:55;99559.88;;;32.99;38.80
55675;BME280;41562;44.330;23.802;2022-08-20T10:41:29;99551.53;;;32.86;39.43
55675;BME280;41562;44.330;23.802;2022-08-20T10:44:08;99546.97;;;32.80;39.30
55675;BME280;41562;44.330;23.802;2022-08-20T10:46:40;99551.34;;;32.93;39.67
55675;BME280;41562;44.330;23.802;2022-08-20T10:49:08;99540.34;;;33.19;39.61
55675;BME280;41562;44.330;23.802;2022-08-20T10:51:41;99550.22;;;33.32;39.01
55675;BME280;41562;44.330;23.802;2022-08-20T10:54:15;99540.47;;;33.53;38.78
55675;BME280;41562;44.330;23.802;2022-08-20T10:56:42;99546.44;;;33.51;38.36
55675;BME280;41562;44.330;23.802;2022-08-20T10:59:09;99535.44;;;33.23;39.06
55675;BME280;41562;44.330;23.802;2022-08-20T11:01:39;99543.06;;;33.06;39.21
55675;BME280;41562;44.330;23.802;2022-08-20T11:04:09;99535.44;;;33.23;38.86
55675;BME280;41562;44.330;23.802;2022-08-20T11:06:37;99537.59;;;33.02;38.41
55675;BME280;41562;44.330;23.802;2022-08-20T11:09:10;99537.25;;;32.88;38.82
55675;BME280;41562;44.330;23.802;2022-08-20T11:11:43;99537.25;;;32.88;39.92
55675;BME280;41562;44.330;23.802;2022-08-20T11:14:17;99530.72;;;32.82;40.08
55675;BME280;41562;44.330;23.802;2022-08-20T11:16:44;99536.38;;;32.91;39.35
55675;BME280;41562;44.330;23.802;2022-08-20T11:19:12;99522.53;;;33.03;38.57
55675;BME280;41562;44.330;23.802;2022-08-20T11:21:42;99527.31;;;33.03;38.99
55675;BME280;41562;44.330;23.802;2022-08-20T11:24:17;99524.63;;;32.87;38.47
55675;BME280;41562;44.330;23.802;2022-08-20T11:26:45;99521.72;;;32.90;39.44
55675;BME280;41562;44.330;23.802;2022-08-20T11:29:16;99515.84;;;32.88;38.99
55675;BME280;41562;44.330;23.802;2022-08-20T11:31:44;99525.19;;;32.94;38.71
55675;BME280;41562;44.330;23.802;2022-08-20T11:34:11;99523.16;;;32.82;39.26
55675;BME280;41562;44.330;23.802;2022-08-20T11:36:39;99522.94;;;32.60;38.86
55675;BME280;41562;44.330;23.802;2022-08-20T11:39:10;99514.09;;;32.82;39.03
55675;BME280;41562;44.330;23.802;2022-08-20T11:41:39;99512.56;;;32.93;38.49
55675;BME280;41562;44.330;23.802;2022-08-20T11:44:11;99505.13;;;33.03;38.74
55675;BME280;41562;44.330;23.802;2022-08-20T11:46:47;99500.94;;;33.11;38.30
55675;BME280;41562;44.330;23.802;2022-08-20T11:49:15;99513.63;;;33.25;38.03
55675;BME280;41562;44.330;23.802;2022-08-20T11:51:44;99506.88;;;33.26;38.31
55675;BME280;41562;44.330;23.802;2022-08-20T11:54:16;99506.47;;;33.11;37.93
55675;BME280;41562;44.330;23.802;2022-08-20T11:56:47;99504.16;;;33.09;38.41
55675;BME280;41562;44.330;23.802;2022-08-20T11:59:15;99497.50;;;33.07;38.53
55675;BME280;41562;44.330;23.802;2022-08-20T12:01:45;99499.56;;;32.90;38.88
55675;BME280;41562;44.330;23.802;2022-08-20T12:04:32;99493.66;;;32.76;38.19
55675;BME280;41562;44.330;23.802;2022-08-20T12:07:11;99477.28;;;32.81;38.51
55675;BME280;41562;44.330;23.802;2022-08-20T12:09:54;99486.06;;;32.92;38.45
55675;BME280;41562;44.330;23.802;2022-08-20T12:12:22;99480.88;;;32.94;38.03
55675;BME280;41562;44.330;23.802;2022-08-20T12:14:50;99477.09;;;33.01;38.02
55675;BME280;41562;44.330;23.802;2022-08-20T12:17:23;99467.69;;;32.98;38.51
55675;BME280;41562;44.330;23.802;2022-08-20T12:19:52;99463.13;;;33.04;38.86
55675;BME280;41562;44.330;23.802;2022-08-20T12:22:23;99455.25;;;33.16;41.16
55675;BME280;41562;44.330;23.802;2022-08-20T12:24:52;99453.41;;;33.12;40.57
55675;BME280;41562;44.330;23.802;2022-08-20T12:27:23;99448.06;;;33.05;40.76
55675;BME280;41562;44.330;23.802;2022-08-20T12:29:56;99448.06;;;32.93;40.98
55675;BME280;41562;44.330;23.802;2022-08-20T12:32:28;99444.75;;;33.10;40.09
55675;BME280;41562;44.330;23.802;2022-08-20T12:34:58;99436.88;;;33.09;39.40
55675;BME280;41562;44.330;23.802;2022-08-20T12:37:26;99430.31;;;33.16;39.12
55675;BME280;41562;44.330;23.802;2022-08-20T12:39:57;99424.94;;;33.25;39.42
55675;BME280;41562;44.330;23.802;2022-08-20T12:42:26;99423.47;;;33.20;37.58
55675;BME280;41562;44.330;23.802;2022-08-20T12:44:54;99420.78;;;33.04;37.90
55675;BME280;41562;44.330;23.802;2022-08-20T12:47:26;99415.91;;;33.08;39.84
55675;BME280;41562;44.330;23.802;2022-08-20T12:49:59;99401.41;;;33.17;37.45
55675;BME280;41562;44.330;23.802;2022-08-20T12:52:30;99392.97;;;33.07;37.79
55675;BME280;41562;44.330;23.802;2022-08-20T12:55:01;99399.75;;;33.06;38.07
55675;BME280;41562;44.330;23.802;2022-08-20T12:57:33;99395.41;;;33.05;38.99
55675;BME280;41562;44.330;23.802;2022-08-20T13:00:09;99382.22;;;33.09;38.32
55675;BME280;41562;44.330;23.802;2022-08-20T13:02:51;99394.09;;;32.97;38.47
55675;BME280;41562;44.330;23.802;2022-08-20T13:05:30;99383.56;;;33.18;37.92
55675;BME280;41562;44.330;23.802;2022-08-20T13:08:08;99398.09;;;33.22;37.40
55675;BME280;41562;44.330;23.802;2022-08-20T13:10:41;99400.41;;;33.10;37.41
55675;BME280;41562;44.330;23.802;2022-08-20T13:13:18;99385.44;;;33.08;37.77
55675;BME280;41562;44.330;23.802;2022-08-20T13:16:01;99385.44;;;33.08;38.06
55675;BME280;41562;44.330;23.802;2022-08-20T13:18:35;99383.56;;;33.18;37.97
55675;BME280;41562;44.330;23.802;2022-08-20T13:21:05;99385.97;;;33.16;37.50
55675;BME280;41562;44.330;23.802;2022-08-20T13:23:38;99379.09;;;33.07;37.33